createdAt,value
2023-05-12T00:00:49.912Z,102241.59
2023-05-12T00:03:19.522Z,102239.00
2023-05-12T00:05:47.582Z,102238.25
2023-05-12T00:08:15.591Z,102239.19
2023-05-12T00:10:43.565Z,102240.16
2023-05-12T00:13:11.649Z,102242.03
2023-05-12T00:15:39.805Z,102248.38
2023-05-12T00:18:07.878Z,102239.63
2023-05-12T00:20:37.479Z,102162.91
2023-05-12T00:23:05.521Z,102220.03
2023-05-12T00:25:33.585Z,102254.84
2023-05-12T00:28:01.747Z,102246.13
2023-05-12T00:30:29.785Z,102250.63
2023-05-12T00:32:58.767Z,102252.44
2023-05-12T00:35:26.790Z,102244.66
2023-05-12T00:37:56.237Z,102255.22
2023-05-12T00:40:24.187Z,102262.47
2023-05-12T00:42:52.259Z,102259.00
2023-05-12T00:45:21.835Z,102255.44
2023-05-12T00:47:52.776Z,102267.16
2023-05-12T00:50:21.818Z,102261.88
2023-05-12T00:55:20.641Z,102255.66
2023-05-12T00:57:48.812Z,102269.22
2023-05-12T01:00:18.844Z,102225.88
2023-05-12T01:02:48.851Z,102261.31
2023-05-12T01:05:17.110Z,102275.63
2023-05-12T01:07:47.756Z,102272.06
2023-05-12T01:10:22.064Z,102264.94
2023-05-12T01:12:50.432Z,102272.13
2023-05-12T01:15:19.712Z,102280.28
2023-05-12T01:17:53.885Z,102289.19
2023-05-12T01:20:26.078Z,102283.91
2023-05-12T01:22:56.209Z,102291.94
2023-05-12T01:25:30.031Z,102289.38
2023-05-12T01:28:00.400Z,102289.47
2023-05-12T01:30:29.593Z,102293.94
2023-05-12T01:32:58.120Z,102299.31
2023-05-12T01:35:26.460Z,102294.88
2023-05-12T01:38:00.536Z,102303.03
2023-05-12T01:40:28.680Z,102296.88
2023-05-12T01:43:00.055Z,102309.28
2023-05-12T01:45:32.026Z,102272.78
2023-05-12T01:48:00.248Z,102284.91
2023-05-12T01:50:28.729Z,102307.59
2023-05-12T01:53:05.775Z,102305.00
2023-05-12T01:55:34.622Z,102310.38
2023-05-12T01:58:04.650Z,102309.50
2023-05-12T02:00:33.311Z,102302.66
2023-05-12T02:03:03.269Z,102311.41
2023-05-12T02:05:31.355Z,102307.84
2023-05-12T02:07:59.479Z,102303.47
2023-05-12T02:10:27.908Z,102275.16
2023-05-12T02:12:55.999Z,102302.75
2023-05-12T02:15:25.581Z,102312.44
2023-05-12T02:17:54.503Z,102313.47
2023-05-12T02:20:23.824Z,102315.28
2023-05-12T02:22:51.874Z,102320.66
2023-05-12T02:25:19.935Z,102316.25
2023-05-12T02:27:48.575Z,102319.88
2023-05-12T02:30:18.359Z,102319.00
2023-05-12T02:32:48.654Z,102308.28
2023-05-12T02:35:16.933Z,102312.88
2023-05-12T02:37:44.844Z,102313.97
2023-05-12T02:40:13.581Z,102313.75
2023-05-12T02:42:43.494Z,102320.13
2023-05-12T02:45:12.741Z,102324.53
2023-05-12T02:47:41.080Z,102319.25
2023-05-12T02:50:11.093Z,102321.94
2023-05-12T02:52:39.201Z,102322.97
2023-05-12T02:55:07.802Z,102310.84
2023-05-12T02:57:35.813Z,102327.31
2023-05-12T03:00:06.144Z,102330.88
2023-05-12T03:02:38.393Z,102322.09
2023-05-12T03:05:10.858Z,102334.47
2023-05-12T03:07:39.508Z,102291.06
2023-05-12T03:10:09.841Z,102328.34
2023-05-12T03:12:38.205Z,102330.00
2023-05-12T03:15:06.827Z,102333.53
2023-05-12T03:17:34.966Z,102334.47
2023-05-12T03:20:03.124Z,102334.38
2023-05-12T03:22:32.924Z,102333.38
2023-05-12T03:25:01.032Z,102331.66
2023-05-12T03:27:30.034Z,102336.69
2023-05-12T03:30:00.497Z,102333.91
2023-05-12T03:32:29.228Z,102335.31
2023-05-12T03:34:57.347Z,102343.97
2023-05-12T03:37:25.378Z,102337.41
2023-05-12T03:39:56.306Z,102339.00
2023-05-12T03:42:25.014Z,102333.50
2023-05-12T03:44:52.947Z,102337.63
2023-05-12T03:47:21.368Z,102341.91
2023-05-12T03:49:49.569Z,102321.19
2023-05-12T03:52:17.623Z,102328.81
2023-05-12T03:54:46.300Z,102327.63
2023-05-12T03:57:18.336Z,102341.66
2023-05-12T03:59:46.529Z,102328.16
2023-05-12T04:02:14.699Z,102328.66
2023-05-12T04:04:43.019Z,102337.44
2023-05-12T04:07:10.976Z,102316.53
2023-05-12T04:09:39.076Z,102338.53
2023-05-12T04:12:07.754Z,102338.25
2023-05-12T04:14:42.719Z,102331.66
2023-05-12T04:17:11.698Z,102344.88
2023-05-12T04:19:39.705Z,102343.81
2023-05-12T04:22:07.895Z,102339.09
2023-05-12T04:24:37.468Z,102340.56
2023-05-12T04:27:06.229Z,102334.91
2023-05-12T04:29:35.266Z,102349.88
2023-05-12T04:32:05.133Z,102345.09
2023-05-12T04:34:35.015Z,102347.53
2023-05-12T04:37:03.312Z,102346.38
2023-05-12T04:39:31.702Z,102343.41
2023-05-12T04:42:01.340Z,102341.31
2023-05-12T04:44:30.353Z,102347.50
2023-05-12T04:46:58.498Z,102343.66
2023-05-12T04:49:27.906Z,102338.16
2023-05-12T04:51:56.182Z,102345.81
2023-05-12T04:54:24.548Z,102337.53
2023-05-12T04:56:52.574Z,102336.41
2023-05-12T04:59:20.724Z,102346.88
2023-05-12T05:01:50.985Z,102339.56
2023-05-12T05:04:19.333Z,102329.50
2023-05-12T05:06:49.166Z,102342.50
2023-05-12T05:09:17.180Z,102338.78
2023-05-12T05:11:45.652Z,102324.81
2023-05-12T05:14:13.777Z,102342.81
2023-05-12T05:16:41.990Z,102342.63
2023-05-12T05:19:20.068Z,102337.94
2023-05-12T05:21:55.471Z,102339.66
2023-05-12T05:24:23.427Z,102345.63
2023-05-12T05:26:51.443Z,102342.66
2023-05-12T05:29:19.780Z,102347.84
2023-05-12T05:31:48.146Z,102346.69
2023-05-12T05:34:16.550Z,102351.75
2023-05-12T05:36:44.935Z,102324.56
2023-05-12T05:39:14.224Z,102351.97
2023-05-12T05:41:42.309Z,102340.88
2023-05-12T05:44:10.336Z,102311.13
2023-05-12T05:46:38.480Z,102343.97
2023-05-12T05:49:06.783Z,102350.16
2023-05-12T05:51:34.709Z,102343.69
2023-05-12T05:54:02.800Z,102345.25
2023-05-12T05:56:33.288Z,102350.44
2023-05-12T05:59:03.045Z,102344.88
2023-05-12T06:01:31.092Z,102347.38
2023-05-12T06:03:59.666Z,102348.00
2023-05-12T06:06:27.879Z,102351.47
2023-05-12T06:08:56.098Z,102347.50
2023-05-12T06:11:24.205Z,102351.84
2023-05-12T06:13:53.680Z,102354.25
2023-05-12T06:16:21.639Z,102351.44
2023-05-12T06:18:49.660Z,102352.22
2023-05-12T06:21:17.671Z,102351.13
2023-05-12T06:23:47.545Z,102356.25
2023-05-12T06:26:16.009Z,102343.53
2023-05-12T06:28:43.910Z,102348.72
2023-05-12T06:31:13.280Z,102344.97
2023-05-12T06:33:41.327Z,102351.97
2023-05-12T06:36:10.637Z,102344.66
2023-05-12T06:38:38.730Z,102348.09
2023-05-12T06:41:06.859Z,102342.63
2023-05-12T06:43:34.869Z,102353.28
2023-05-12T06:46:05.032Z,102346.84
2023-05-12T06:48:34.500Z,102355.69
2023-05-12T06:51:02.646Z,102350.28
2023-05-12T06:53:30.782Z,102364.44
2023-05-12T06:55:59.088Z,102362.63
2023-05-12T06:58:27.008Z,102356.16
2023-05-12T07:00:55.001Z,102357.03
2023-05-12T07:03:23.210Z,102360.50
2023-05-12T07:05:52.814Z,102356.75
2023-05-12T07:08:20.991Z,102358.56
2023-05-12T07:10:49.098Z,102355.75
2023-05-12T07:13:17.387Z,102352.09
2023-05-12T07:15:45.431Z,102355.66
2023-05-12T07:18:13.832Z,102354.78
2023-05-12T07:20:41.844Z,102354.78
2023-05-12T07:23:11.329Z,102350.34
2023-05-12T07:25:39.433Z,102360.06
2023-05-12T07:28:07.639Z,102355.56
2023-05-12T07:30:35.878Z,102360.00
2023-05-12T07:33:04.663Z,102361.69
2023-05-12T07:35:32.782Z,102360.00
2023-05-12T07:38:00.780Z,102360.75
2023-05-12T07:40:30.224Z,102358.16
2023-05-12T07:42:58.284Z,102356.41
2023-05-12T07:45:26.284Z,102359.13
2023-05-12T07:47:54.382Z,102364.50
2023-05-12T07:50:22.447Z,102358.25
2023-05-12T07:52:51.877Z,102356.53
2023-05-12T07:55:21.377Z,102357.50
2023-05-12T07:57:51.883Z,102365.47
2023-05-12T08:00:20.404Z,102294.47
2023-05-12T08:02:48.810Z,102364.72
2023-05-12T08:05:17.182Z,102359.31
2023-05-12T08:07:45.152Z,102363.84
2023-05-12T08:10:14.123Z,102374.75
2023-05-12T08:12:43.096Z,102371.94
2023-05-12T08:15:12.801Z,102368.41
2023-05-12T08:17:41.073Z,102363.97
2023-05-12T08:20:10.197Z,102371.09
2023-05-12T08:22:38.850Z,102367.53
2023-05-12T08:25:09.659Z,102364.81
2023-05-12T08:27:38.994Z,102359.44
2023-05-12T08:30:07.936Z,102364.81
2023-05-12T08:32:37.555Z,102364.81
2023-05-12T08:35:06.272Z,102363.97
2023-05-12T08:37:34.980Z,102368.47
2023-05-12T08:40:04.132Z,102359.53
2023-05-12T08:42:38.408Z,102355.00
2023-05-12T08:45:08.910Z,102355.00
2023-05-12T08:47:39.184Z,102363.09
2023-05-12T08:50:09.900Z,102354.25
2023-05-12T08:52:37.871Z,102353.28
2023-05-12T08:55:06.947Z,102327.41
2023-05-12T08:57:36.941Z,102355.13
2023-05-12T09:00:09.990Z,102355.97
2023-05-12T09:02:52.065Z,102351.53
2023-05-12T09:05:22.064Z,102345.25
2023-05-12T09:07:51.262Z,102350.63
2023-05-12T09:10:34.571Z,102349.78
2023-05-12T09:13:06.006Z,102350.75
2023-05-12T09:15:39.543Z,102353.44
2023-05-12T09:18:08.951Z,102345.38
2023-05-12T09:20:37.536Z,102351.72
2023-05-12T09:23:19.217Z,102317.50
2023-05-12T09:25:48.299Z,102342.94
2023-05-12T09:28:16.556Z,102333.03
2023-05-12T09:30:44.635Z,102335.72
2023-05-12T09:33:15.041Z,102334.78
2023-05-12T09:35:45.428Z,102326.78
2023-05-12T09:38:14.607Z,102323.25
2023-05-12T09:40:43.229Z,102318.81
2023-05-12T09:43:15.133Z,102327.75
2023-05-12T09:45:44.112Z,102321.63
2023-05-12T09:48:14.587Z,102324.19
2023-05-12T09:50:48.402Z,102316.97
2023-05-12T09:53:17.522Z,102317.06
2023-05-12T09:55:46.270Z,102312.66
2023-05-12T09:58:17.736Z,102313.63
2023-05-12T10:03:21.889Z,102320.81
2023-05-12T10:05:51.744Z,102322.69
2023-05-12T10:08:24.056Z,102320.81
2023-05-12T10:10:53.295Z,102316.50
2023-05-12T10:13:21.415Z,102320.94
2023-05-12T10:15:51.034Z,102316.63
2023-05-12T10:18:20.732Z,102311.53
2023-05-12T10:20:49.852Z,102318.44
2023-05-12T10:23:19.783Z,102313.06
2023-05-12T10:25:49.197Z,102309.59
2023-05-12T10:28:17.456Z,102321.34
2023-05-12T10:30:46.754Z,102314.25
2023-05-12T10:33:15.809Z,102317.91
2023-05-12T10:35:47.828Z,102312.38
2023-05-12T10:38:18.793Z,102307.22
2023-05-12T10:40:54.587Z,102314.25
2023-05-12T10:43:24.881Z,102312.63
2023-05-12T10:46:16.423Z,102308.06
2023-05-12T10:48:54.051Z,102308.28
2023-05-12T10:51:26.374Z,102311.00
2023-05-12T10:54:02.342Z,102307.31
2023-05-12T10:56:32.577Z,102299.34
2023-05-12T10:59:08.988Z,102300.22
2023-05-12T11:01:37.851Z,102300.41
2023-05-12T11:04:14.035Z,102297.91
2023-05-12T11:06:45.166Z,102304.81
2023-05-12T11:09:13.694Z,102306.66
2023-05-12T11:11:43.476Z,102299.41
2023-05-12T11:14:11.936Z,102304.06
2023-05-12T11:16:43.890Z,102297.78
2023-05-12T11:19:12.591Z,102296.09
2023-05-12T11:21:40.838Z,102300.59
2023-05-12T11:24:14.487Z,102303.19
2023-05-12T11:26:42.630Z,102299.66
2023-05-12T11:29:10.563Z,102306.94
2023-05-12T11:31:39.793Z,102303.19
2023-05-12T11:34:13.129Z,102298.78
2023-05-12T11:36:43.440Z,102294.34
2023-05-12T11:39:17.471Z,102262.34
2023-05-12T11:41:46.138Z,102232.22
2023-05-12T11:44:15.778Z,102291.75
2023-05-12T11:46:54.328Z,102294.47
2023-05-12T11:49:22.429Z,102294.53
2023-05-12T11:51:52.963Z,102292.84
2023-05-12T11:54:22.765Z,102291.84
2023-05-12T11:56:51.778Z,102293.66
2023-05-12T11:59:30.819Z,102290.97
2023-05-12T12:01:59.622Z,102292.91
2023-05-12T12:04:35.370Z,102288.28
2023-05-12T12:07:04.014Z,102291.09
2023-05-12T12:09:34.841Z,102289.28
2023-05-12T12:12:07.109Z,102285.69
2023-05-12T12:14:36.532Z,102291.09
2023-05-12T12:17:05.194Z,102282.13
2023-05-12T12:19:33.425Z,102290.13
2023-05-12T12:22:01.436Z,102289.16
2023-05-12T12:24:29.568Z,102283.69
2023-05-12T12:26:58.925Z,102283.69
2023-05-12T12:29:28.468Z,102280.13
2023-05-12T12:31:57.174Z,102288.09
2023-05-12T12:34:25.205Z,102282.81
2023-05-12T12:36:53.179Z,102284.63
2023-05-12T12:39:21.766Z,102281.94
2023-05-12T12:41:50.257Z,102284.56
2023-05-12T12:44:19.589Z,102280.00
2023-05-12T12:46:47.784Z,102277.31
2023-05-12T12:49:15.825Z,102284.56
2023-05-12T12:51:46.895Z,102286.38
2023-05-12T12:54:15.728Z,102277.41
2023-05-12T12:56:44.356Z,102280.97
2023-05-12T12:59:12.906Z,102278.28
2023-05-12T13:01:42.957Z,102276.47
2023-05-12T13:04:11.154Z,102277.31
2023-05-12T13:06:39.546Z,102272.78
2023-05-12T13:09:07.534Z,102275.47
2023-05-12T13:11:35.956Z,102267.38
2023-05-12T13:14:04.552Z,102279.91
2023-05-12T13:16:32.896Z,102278.19
2023-05-12T13:19:02.231Z,102266.63
2023-05-12T13:21:30.385Z,102275.47
2023-05-12T13:23:58.382Z,102271.16
2023-05-12T13:26:26.721Z,102274.59
2023-05-12T13:28:54.744Z,102263.28
2023-05-12T13:31:22.974Z,102275.59
2023-05-12T13:33:51.040Z,102272.91
2023-05-12T13:36:20.476Z,102271.06
2023-05-12T13:38:48.545Z,102272.03
2023-05-12T13:41:16.705Z,102270.22
2023-05-12T13:43:44.948Z,102272.97
2023-05-12T13:46:13.007Z,102274.81
2023-05-12T13:48:41.909Z,102271.47
2023-05-12T13:51:10.001Z,102273.09
2023-05-12T13:53:39.998Z,102270.59
2023-05-12T13:56:16.949Z,102280.31
2023-05-12T13:58:45.497Z,102272.22
2023-05-12T14:01:13.482Z,102260.13
2023-05-12T14:03:42.029Z,102268.66
2023-05-12T14:06:10.906Z,102263.28
2023-05-12T14:08:41.594Z,102266.97
2023-05-12T14:11:10.035Z,102263.59
2023-05-12T14:13:38.162Z,102252.25
2023-05-12T14:16:07.165Z,102267.91
2023-05-12T14:18:35.173Z,102266.97
2023-05-12T14:21:03.321Z,102266.84
2023-05-12T14:23:31.234Z,102264.25
2023-05-12T14:26:00.570Z,102273.97
2023-05-12T14:28:29.020Z,102270.41
2023-05-12T14:30:57.126Z,102264.03
2023-05-12T14:33:25.152Z,102267.59
2023-05-12T14:36:05.704Z,102266.72
2023-05-12T14:38:35.026Z,102262.19
2023-05-12T14:41:04.534Z,102266.72
2023-05-12T14:43:32.585Z,102271.16
2023-05-12T14:46:02.049Z,102274.72
2023-05-12T14:48:30.432Z,102271.34
2023-05-12T14:50:58.950Z,102272.13
2023-05-12T14:53:27.161Z,102274.81
2023-05-12T14:55:55.403Z,102272.13
2023-05-12T14:58:25.084Z,102272.97
2023-05-12T15:00:53.226Z,102266.72
2023-05-12T15:03:21.934Z,102272.97
2023-05-12T15:08:21.736Z,102262.13
2023-05-12T15:10:50.044Z,102235.72
2023-05-12T15:13:20.366Z,102268.47
2023-05-12T15:15:51.030Z,102269.34
2023-05-12T15:18:21.008Z,102261.34
2023-05-12T15:20:49.011Z,102265.88
2023-05-12T15:23:17.136Z,102261.25
2023-05-12T15:25:45.149Z,102264.81
2023-05-12T15:28:13.204Z,102255.00
2023-05-12T15:30:41.177Z,102251.41
2023-05-12T15:33:10.637Z,102257.69
2023-05-12T15:35:41.650Z,102261.34
2023-05-12T15:38:09.806Z,102259.63
2023-05-12T15:40:38.092Z,102263.28
2023-05-12T15:43:06.057Z,102256.19
2023-05-12T15:45:37.229Z,102255.50
2023-05-12T15:48:07.988Z,102262.41
2023-05-12T15:50:38.937Z,102249.34
2023-05-12T15:53:07.360Z,102252.69
2023-05-12T15:55:35.489Z,102247.53
2023-05-12T15:58:04.403Z,102247.31
2023-05-12T16:00:32.563Z,102256.25
2023-05-12T16:03:01.711Z,102267.16
2023-05-12T16:05:30.194Z,102262.63
2023-05-12T16:07:59.531Z,102261.84
2023-05-12T16:10:27.469Z,102264.53
2023-05-12T16:12:55.395Z,102256.56
2023-05-12T16:15:23.391Z,102254.75
2023-05-12T16:17:51.532Z,102261.00
2023-05-12T16:20:19.696Z,102255.63
2023-05-12T16:22:48.395Z,102259.16
2023-05-12T16:25:18.648Z,102255.50
2023-05-12T16:27:46.781Z,102253.69
2023-05-12T16:30:17.214Z,102249.34
2023-05-12T16:32:47.379Z,102255.50
2023-05-12T16:35:15.739Z,102244.72
2023-05-12T16:37:43.780Z,102250.00
2023-05-12T16:40:12.267Z,102253.69
2023-05-12T16:42:41.744Z,102255.38
2023-05-12T16:45:11.968Z,102252.81
2023-05-12T16:47:40.072Z,102251.19
2023-05-12T16:50:09.582Z,102262.63
2023-05-12T16:52:37.593Z,102263.59
2023-05-12T16:55:06.795Z,102256.47
2023-05-12T16:57:35.150Z,102240.91
2023-05-12T17:00:06.103Z,102256.47
2023-05-12T17:02:34.396Z,102252.13
2023-05-12T17:05:02.428Z,102251.19
2023-05-12T17:07:31.091Z,102246.75
2023-05-12T17:09:59.133Z,102255.69
2023-05-12T17:12:27.234Z,102254.84
2023-05-12T17:15:06.152Z,102251.38
2023-05-12T17:17:37.578Z,102246.00
2023-05-12T17:20:07.081Z,102248.69
2023-05-12T17:22:37.372Z,102247.81
2023-05-12T17:25:06.283Z,102246.19
2023-05-12T17:27:34.234Z,102247.19
2023-05-12T17:30:04.353Z,102244.56
2023-05-12T17:32:32.741Z,102249.97
2023-05-12T17:35:02.318Z,102253.53
2023-05-12T17:37:30.461Z,102247.38
2023-05-12T17:39:59.457Z,102253.63
2023-05-12T17:42:30.984Z,102250.16
2023-05-12T17:44:59.432Z,102231.25
2023-05-12T17:47:27.720Z,102245.75
2023-05-12T17:49:56.557Z,102246.63
2023-05-12T17:52:26.106Z,102255.66
2023-05-12T17:54:57.170Z,102250.38
2023-05-12T17:57:25.420Z,102254.97
2023-05-12T17:59:53.497Z,102246.16
2023-05-12T18:02:21.738Z,102248.75
2023-05-12T18:04:50.031Z,102253.34
2023-05-12T18:07:18.176Z,102255.28
2023-05-12T18:09:47.448Z,102252.53
2023-05-12T18:12:15.933Z,102248.38
2023-05-12T18:14:43.959Z,102252.78
2023-05-12T18:17:12.131Z,102261.00
2023-05-12T18:19:40.050Z,102256.53
2023-05-12T18:22:07.991Z,102253.19
2023-05-12T18:24:36.259Z,102252.19
2023-05-12T18:27:06.563Z,102261.03
2023-05-12T18:29:34.745Z,102262.03
2023-05-12T18:32:02.619Z,102263.84
2023-05-12T18:34:30.915Z,102259.41
2023-05-12T18:36:58.860Z,102261.25
2023-05-12T18:39:26.836Z,102264.03
2023-05-12T18:41:55.730Z,102269.53
2023-05-12T18:44:25.067Z,102273.19
2023-05-12T18:46:53.275Z,102267.03
2023-05-12T18:49:21.367Z,102275.13
2023-05-12T18:51:49.392Z,102275.50
2023-05-12T18:54:17.363Z,102278.94
2023-05-12T18:56:47.252Z,102277.25
2023-05-12T18:59:15.317Z,102279.94
2023-05-12T19:01:44.801Z,102283.59
2023-05-12T19:04:12.849Z,102286.38
2023-05-12T19:06:40.848Z,102286.47
2023-05-12T19:09:08.771Z,102292.06
2023-05-12T19:11:36.729Z,102292.06
2023-05-12T19:14:04.713Z,102286.00
2023-05-12T19:16:34.939Z,102291.28
2023-05-12T19:19:04.807Z,102295.91
2023-05-12T19:21:33.601Z,102285.44
2023-05-12T19:24:02.194Z,102288.13
2023-05-12T19:26:30.751Z,102293.59
2023-05-12T19:29:00.465Z,102295.44
2023-05-12T19:31:28.527Z,102271.09
2023-05-12T19:33:56.619Z,102300.16
2023-05-12T19:36:26.192Z,102294.94
2023-05-12T19:38:54.235Z,102291.56
2023-05-12T19:41:22.381Z,102299.56
2023-05-12T19:43:50.604Z,102293.44
2023-05-12T19:46:18.588Z,102301.59
2023-05-12T19:48:46.768Z,102295.31
2023-05-12T19:51:14.727Z,102251.38
2023-05-12T19:53:44.163Z,102260.56
2023-05-12T19:56:12.336Z,102294.75
2023-05-12T19:58:40.314Z,102295.75
2023-05-12T20:01:08.493Z,102295.81
2023-05-12T20:03:36.492Z,102290.63
2023-05-12T20:06:05.684Z,102291.50
2023-05-12T20:08:33.594Z,102291.69
2023-05-12T20:11:03.188Z,102299.75
2023-05-12T20:13:32.451Z,102305.13
2023-05-12T20:16:00.662Z,102295.41
2023-05-12T20:18:28.871Z,102300.81
2023-05-12T20:20:57.305Z,102313.50
2023-05-12T20:23:25.532Z,102303.03
2023-05-12T20:25:53.967Z,102309.09
2023-05-12T20:28:24.173Z,102306.47
2023-05-12T20:30:52.318Z,102307.47
2023-05-12T20:33:20.536Z,102303.97
2023-05-12T20:35:50.705Z,102308.41
2023-05-12T20:38:18.673Z,102314.84
2023-05-12T20:40:46.750Z,102308.59
2023-05-12T20:43:15.152Z,102315.88
2023-05-12T20:45:44.550Z,102318.56
2023-05-12T20:48:12.735Z,102314.13
2023-05-12T20:50:40.910Z,102312.41
2023-05-12T20:53:08.957Z,102317.88
2023-05-12T20:55:36.943Z,102308.34
2023-05-12T20:58:04.974Z,102305.06
2023-05-12T21:00:33.112Z,102318.16
2023-05-12T21:03:03.873Z,102307.69
2023-05-12T21:05:34.754Z,102316.53
2023-05-12T21:08:02.802Z,102322.00
2023-05-12T21:10:32.543Z,102323.81
2023-05-12T21:13:00.523Z,102312.47
2023-05-12T21:15:28.679Z,102313.59
2023-05-12T21:17:56.776Z,102313.53
2023-05-12T21:20:26.044Z,102325.94
2023-05-12T21:22:54.115Z,102326.97
2023-05-12T21:25:22.304Z,102316.59
2023-05-12T21:27:50.379Z,102302.91
2023-05-12T21:30:18.506Z,102330.78
2023-05-12T21:32:47.247Z,102329.91
2023-05-12T21:35:15.306Z,102334.47
2023-05-12T21:37:45.222Z,102337.22
2023-05-12T21:40:14.090Z,102331.06
2023-05-12T21:42:42.191Z,102338.28
2023-05-12T21:45:10.979Z,102333.00
2023-05-12T21:47:39.232Z,102340.19
2023-05-12T21:50:07.725Z,102335.00
2023-05-12T21:52:36.463Z,102348.34
2023-05-12T21:55:06.540Z,102337.69
2023-05-12T21:57:34.552Z,102351.22
2023-05-12T22:00:04.035Z,102349.50
2023-05-12T22:02:37.680Z,102352.28
2023-05-12T22:05:09.046Z,102346.97
2023-05-12T22:07:37.095Z,102355.91
2023-05-12T22:10:07.383Z,102352.53
2023-05-12T22:12:35.379Z,102353.41
2023-05-12T22:15:03.426Z,102348.97
2023-05-12T22:17:31.572Z,102347.25
2023-05-12T22:19:59.829Z,102349.19
2023-05-12T22:22:27.853Z,102346.56
2023-05-12T22:24:57.497Z,102346.66
2023-05-12T22:27:27.086Z,102348.38
2023-05-12T22:29:56.835Z,102350.28
2023-05-12T22:32:25.045Z,102342.34
2023-05-12T22:34:53.788Z,102351.28
2023-05-12T22:37:22.217Z,102349.53
2023-05-12T22:39:50.225Z,102350.47
2023-05-12T22:42:18.157Z,102347.00
2023-05-12T22:44:47.603Z,102347.00
2023-05-12T22:47:15.673Z,102353.38
2023-05-12T22:49:43.857Z,102354.31
2023-05-12T22:52:11.802Z,102342.00
2023-05-12T22:54:39.848Z,102347.28
2023-05-12T22:57:07.925Z,102357.28
2023-05-12T22:59:35.951Z,102355.53
2023-05-12T23:02:05.493Z,102359.16
2023-05-12T23:04:33.490Z,102355.69
2023-05-12T23:07:01.479Z,102358.38
2023-05-12T23:09:29.475Z,102353.13
2023-05-12T23:11:57.540Z,102355.97
2023-05-12T23:14:25.669Z,102351.63
2023-05-12T23:16:53.853Z,102332.66
2023-05-12T23:19:23.425Z,102345.34
2023-05-12T23:21:51.422Z,102346.31
2023-05-12T23:24:19.481Z,102349.97
2023-05-12T23:26:47.511Z,102348.22
2023-05-12T23:29:15.410Z,102346.50
2023-05-12T23:31:43.562Z,102343.03
2023-05-12T23:34:11.663Z,102352.06
2023-05-12T23:36:41.154Z,102353.88
2023-05-12T23:39:09.662Z,102352.22
2023-05-12T23:41:37.597Z,102350.41
2023-05-12T23:44:06.167Z,102353.97
2023-05-12T23:46:34.290Z,102353.09
2023-05-12T23:49:02.355Z,102356.72
2023-05-12T23:51:30.905Z,102355.84
2023-05-12T23:54:00.279Z,102348.66
2023-05-12T23:56:28.237Z,102360.38
2023-05-12T23:58:56.371Z,102365.81
